Time;durP1;ratioP1;P1;durP2;ratioP2;P2;SDS_P1;SDS_P2;PMS_P1;PMS_P2;Temp;Humidity;BMP_temperature;BMP_pressure;BME280_temperature;BME280_humidity;BME280_pressure;Samples;Min_cycle;Max_cycle;Signal;HPM_P1;HPM_P2
2023/10/07 00:01:11;;;;;;;7.63;2.37;;;9.00;99.90;;;;;;5020575;28;20425;-61
2023/10/07 00:03:38;;;;;;;6.83;2.60;;;8.90;99.90;;;;;;5022354;28;20436;-61
2023/10/07 00:06:09;;;;;;;5.90;2.47;;;8.80;99.90;;;;;;5021736;28;20214;-62
2023/10/07 00:08:35;;;;;;;7.10;2.17;;;8.80;99.90;;;;;;5022688;28;20423;-62
2023/10/07 00:11:02;;;;;;;8.27;2.73;;;8.70;99.90;;;;;;5021498;28;20500;-62
2023/10/07 00:13:31;;;;;;;7.33;2.13;;;8.70;99.90;;;;;;5029585;28;20960;-62
2023/10/07 00:15:59;;;;;;;6.83;2.93;;;8.60;99.90;;;;;;5019700;28;20421;-61
2023/10/07 00:18:24;;;;;;;6.07;1.90;;;8.60;99.90;;;;;;5028744;28;20940;-61
2023/10/07 00:20:52;;;;;;;9.17;2.70;;;8.50;99.90;;;;;;5023052;28;20417;-61
2023/10/07 00:23:21;;;;;;;4.70;2.27;;;8.30;99.90;;;;;;5028201;28;20187;-62
2023/10/07 00:25:51;;;;;;;6.10;2.50;;;8.10;99.90;;;;;;5024107;28;20452;-62
2023/10/07 00:28:18;;;;;;;7.33;2.73;;;8.10;99.90;;;;;;5027679;28;20468;-62
2023/10/07 00:30:49;;;;;;;7.93;1.50;;;8.10;99.90;;;;;;5027661;28;20459;-62
2023/10/07 00:33:20;;;;;;;7.53;2.40;;;8.10;99.90;;;;;;5027147;28;20464;-61
2023/10/07 00:35:49;;;;;;;4.00;2.50;;;8.10;99.90;;;;;;5027133;28;20520;-62
2023/10/07 00:38:15;;;;;;;8.23;2.83;;;8.30;99.90;;;;;;5027216;28;20417;-61
2023/10/07 00:40:46;;;;;;;4.87;2.90;;;8.10;99.90;;;;;;5029852;28;20444;-62
2023/10/07 00:43:28;;;;;;;6.60;2.43;;;8.10;99.90;;;;;;5026881;28;20170;-62
2023/10/07 00:48:52;;;;;;;3.47;1.83;;;8.00;99.90;;;;;;5029888;28;20432;-62
2023/10/07 00:51:24;;;;;;;2.67;1.70;;;8.10;99.90;;;;;;5023552;28;20475;-62
2023/10/07 00:54:16;;;;;;;9.20;2.53;;;8.00;99.90;;;;;;5028469;28;20468;-62
2023/10/07 00:56:43;;;;;;;4.80;1.93;;;8.00;99.90;;;;;;5024725;28;20523;-61
2023/10/07 00:59:10;;;;;;;5.07;2.20;;;7.90;99.90;;;;;;5031464;28;21291;-61
2023/10/07 01:01:37;;;;;;;3.90;2.07;;;7.80;99.90;;;;;;5028391;28;20417;-61
2023/10/07 01:04:06;;;;;;;7.47;2.53;;;7.80;99.90;;;;;;5031550;28;20429;-61
2023/10/07 01:06:32;;;;;;;8.43;2.17;;;7.80;99.90;;;;;;5029703;28;20431;-62
2023/10/07 01:09:10;;;;;;;6.23;2.13;;;7.60;99.90;;;;;;5033073;28;20425;-61
2023/10/07 01:11:46;;;;;;;6.93;2.30;;;7.60;99.90;;;;;;5026367;28;20181;-61
2023/10/07 01:14:12;;;;;;;7.93;2.90;;;7.60;99.90;;;;;;5030062;28;20841;-61
2023/10/07 01:16:45;;;;;;;8.27;2.77;;;7.60;99.90;;;;;;5029158;28;20500;-62
2023/10/07 01:22:09;;;;;;;10.70;2.40;;;7.60;99.90;;;;;;5029740;28;20428;-61
2023/10/07 01:32:54;;;;;;;5.03;2.03;;;7.60;99.90;;;;;;5012759;28;20452;-62
2023/10/07 01:35:34;;;;;;;11.60;3.00;;;7.50;99.90;;;;;;5030271;28;20431;-62
2023/10/07 01:38:00;;;;;;;7.30;2.43;;;7.40;99.90;;;;;;5032805;28;20436;-61
2023/10/07 01:40:43;;;;;;;4.37;2.50;;;7.40;99.90;;;;;;5032094;28;20420;-62
2023/10/07 01:43:09;;;;;;;8.50;3.10;;;7.40;99.90;;;;;;5029420;28;20193;-62
2023/10/07 01:45:39;;;;;;;5.63;2.90;;;7.20;99.90;;;;;;5025795;28;20440;-62
2023/10/07 01:48:09;;;;;;;8.87;2.90;;;7.10;99.90;;;;;;5028528;28;20309;-62
2023/10/07 01:50:40;;;;;;;5.53;2.37;;;7.20;99.90;;;;;;5026203;28;20456;-62
2023/10/07 01:53:06;;;;;;;7.40;3.43;;;7.20;99.90;;;;;;5032659;28;20460;-61
2023/10/07 01:55:36;;;;;;;8.40;2.60;;;7.10;99.90;;;;;;5026578;28;20471;-62
2023/10/07 01:58:02;;;;;;;7.23;2.80;;;7.00;99.90;;;;;;5031171;28;20499;-61
2023/10/07 02:00:44;;;;;;;4.43;2.60;;;6.90;99.90;;;;;;5030548;28;20421;-62
2023/10/07 02:03:13;;;;;;;7.83;2.30;;;6.80;99.90;;;;;;5032108;28;20492;-62
2023/10/07 02:05:40;;;;;;;7.77;2.60;;;6.70;99.90;;;;;;5029593;28;20512;-62
2023/10/07 02:08:20;;;;;;;7.10;3.23;;;6.70;99.90;;;;;;5028808;28;20414;-61
2023/10/07 02:10:46;;;;;;;4.60;2.13;;;6.90;99.90;;;;;;5031588;28;20420;-61
2023/10/07 02:13:19;;;;;;;4.30;1.80;;;6.90;99.90;;;;;;5029707;28;20460;-61
2023/10/07 02:15:49;;;;;;;6.60;2.50;;;6.90;99.90;;;;;;5024546;28;20913;-61
2023/10/07 02:18:15;;;;;;;5.33;2.10;;;6.90;99.90;;;;;;5029212;28;20890;-61
2023/10/07 02:20:49;;;;;;;7.93;2.50;;;6.90;99.90;;;;;;5027820;28;20413;-62
2023/10/07 02:23:37;;;;;;;8.57;3.60;;;7.00;99.90;;;;;;5029461;28;20532;-62
2023/10/07 02:26:21;;;;;;;5.10;2.10;;;6.80;99.90;;;;;;5026572;28;20428;-61
2023/10/07 02:28:50;;;;;;;9.13;2.70;;;6.90;99.90;;;;;;5027864;28;20471;-61
2023/10/07 02:31:18;;;;;;;7.03;3.20;;;6.90;99.90;;;;;;5027844;28;20421;-61
2023/10/07 02:33:45;;;;;;;6.10;2.10;;;7.00;99.90;;;;;;5030801;28;20544;-62
2023/10/07 02:36:28;;;;;;;4.17;1.83;;;7.10;99.90;;;;;;5026703;28;20952;-62
2023/10/07 02:39:04;;;;;;;5.87;2.17;;;7.00;99.90;;;;;;5031492;28;20865;-62
2023/10/07 02:41:34;;;;;;;5.30;2.70;;;7.00;99.90;;;;;;5024160;28;20405;-61
2023/10/07 02:44:09;;;;;;;3.37;2.00;;;7.00;99.90;;;;;;5029777;28;20445;-62
2023/10/07 02:46:35;;;;;;;14.07;3.93;;;7.00;99.90;;;;;;5020966;28;20421;-62
2023/10/07 02:49:09;;;;;;;6.47;3.20;;;6.90;99.90;;;;;;5029499;28;20720;-62
2023/10/07 02:51:47;;;;;;;6.23;2.50;;;6.90;99.90;;;;;;5027678;28;20185;-62
2023/10/07 02:54:32;;;;;;;11.33;2.90;;;6.90;99.90;;;;;;5029102;28;20921;-62
2023/10/07 02:59:50;;;;;;;6.70;2.70;;;6.90;99.90;;;;;;5028834;28;20419;-62
2023/10/07 03:04:58;;;;;;;4.07;2.00;;;6.90;99.90;;;;;;5028229;28;20437;-61
2023/10/07 03:07:25;;;;;;;4.90;2.50;;;6.90;99.90;;;;;;5026359;28;20417;-62
2023/10/07 03:10:04;;;;;;;10.13;3.00;;;6.80;99.90;;;;;;5029295;28;20421;-62
2023/10/07 03:12:30;;;;;;;5.83;2.97;;;6.80;99.90;;;;;;5027198;28;20467;-62
2023/10/07 03:14:59;;;;;;;4.23;2.23;;;6.80;99.90;;;;;;5024380;28;20421;-63
2023/10/07 03:17:34;;;;;;;5.33;2.23;;;6.80;99.90;;;;;;5026264;28;20440;-62
2023/10/07 03:20:27;;;;;;;7.20;2.40;;;6.70;99.90;;;;;;5024784;28;20417;-62
2023/10/07 03:25:47;;;;;;;9.00;2.83;;;6.70;99.90;;;;;;5021927;28;20440;-61
2023/10/07 03:28:16;;;;;;;6.10;2.27;;;6.70;99.90;;;;;;5028082;28;20413;-62
2023/10/07 03:30:47;;;;;;;6.33;2.43;;;6.70;99.90;;;;;;5028857;28;20832;-62
2023/10/07 03:33:15;;;;;;;5.50;2.20;;;6.70;99.90;;;;;;5027121;28;20481;-62
2023/10/07 03:38:26;;;;;;;7.50;3.57;;;6.70;99.90;;;;;;5029585;28;21067;-62
2023/10/07 03:40:55;;;;;;;3.93;1.97;;;6.70;99.90;;;;;;5025521;28;20441;-64
2023/10/07 03:43:30;;;;;;;5.33;2.83;;;6.60;99.90;;;;;;5029125;28;20975;-64
2023/10/07 03:45:56;;;;;;;10.77;3.33;;;6.50;99.90;;;;;;5022766;28;20420;-64
2023/10/07 03:48:23;;;;;;;8.00;2.70;;;6.50;99.90;;;;;;5028841;28;20504;-64
2023/10/07 03:51:12;;;;;;;6.30;2.10;;;6.50;99.90;;;;;;5023586;28;20417;-64
2023/10/07 03:53:47;;;;;;;9.30;2.93;;;6.50;99.90;;;;;;5022644;28;20897;-64
2023/10/07 03:56:14;;;;;;;12.03;2.77;;;6.40;99.90;;;;;;5022097;28;20411;-64
2023/10/07 03:58:43;;;;;;;15.10;3.23;;;6.30;99.90;;;;;;5029754;28;20456;-64
2023/10/07 04:01:16;;;;;;;6.40;2.40;;;6.40;99.90;;;;;;5024546;28;20421;-64
2023/10/07 04:03:46;;;;;;;9.83;2.97;;;6.50;99.90;;;;;;5022891;28;20739;-64
2023/10/07 04:06:20;;;;;;;5.13;2.77;;;6.60;99.90;;;;;;5025225;28;20822;-64
2023/10/07 04:08:52;;;;;;;8.57;3.03;;;6.60;99.90;;;;;;5029174;28;20413;-64
2023/10/07 04:11:19;;;;;;;5.20;2.03;;;6.70;99.90;;;;;;5020729;28;20406;-64
2023/10/07 04:13:46;;;;;;;17.50;2.53;;;6.70;99.90;;;;;;5029502;28;20459;-64
2023/10/07 04:16:24;;;;;;;6.93;2.50;;;6.60;99.90;;;;;;5018395;28;20414;-64
2023/10/07 04:18:52;;;;;;;7.33;2.00;;;6.60;99.90;;;;;;5028396;28;20448;-64
2023/10/07 04:21:20;;;;;;;7.07;2.50;;;6.60;99.90;;;;;;5016473;28;20961;-64
2023/10/07 04:23:46;;;;;;;5.93;3.40;;;6.50;99.90;;;;;;5028853;28;20405;-64
2023/10/07 04:26:19;;;;;;;7.03;2.17;;;6.50;99.90;;;;;;5019728;28;20429;-63
2023/10/07 04:28:48;;;;;;;6.03;3.07;;;6.40;99.90;;;;;;5029309;28;20663;-64
2023/10/07 04:31:17;;;;;;;5.90;2.73;;;6.40;99.90;;;;;;5023230;28;20418;-64
2023/10/07 04:33:53;;;;;;;5.73;2.73;;;6.40;99.90;;;;;;5029156;28;20999;-64
2023/10/07 04:36:32;;;;;;;5.80;2.27;;;6.40;99.90;;;;;;5023175;28;20406;-64
2023/10/07 04:38:58;;;;;;;4.80;2.60;;;6.40;99.90;;;;;;5028261;28;20417;-64
2023/10/07 04:43:58;;;;;;;;;;;;;;;;;;;;;
2023/10/07 04:46:23;;;;;;;7.80;2.90;;;6.20;99.90;;;;;;5024247;28;20542;-64
2023/10/07 04:48:56;;;;;;;7.47;2.27;;;6.20;99.90;;;;;;5028203;28;20432;-64
2023/10/07 04:51:46;;;;;;;10.47;2.47;;;6.20;99.90;;;;;;5023896;28;20417;-64
2023/10/07 04:54:20;;;;;;;11.63;2.43;;;6.20;99.90;;;;;;5027647;28;20461;-64
2023/10/07 04:56:48;;;;;;;6.20;2.50;;;6.20;99.90;;;;;;5023948;28;20432;-64
2023/10/07 04:59:17;;;;;;;6.67;3.10;;;6.20;99.90;;;;;;5027486;28;21133;-64
2023/10/07 05:01:47;;;;;;;9.60;2.57;;;6.20;99.90;;;;;;5023289;28;20409;-64
2023/10/07 05:04:15;;;;;;;9.60;2.87;;;6.20;99.90;;;;;;5027505;28;20456;-64
2023/10/07 05:06:43;;;;;;;7.47;2.90;;;6.20;99.90;;;;;;5021623;28;21062;-64
2023/10/07 05:09:09;;;;;;;6.53;2.17;;;6.20;99.90;;;;;;5029265;28;20455;-64
2023/10/07 05:11:43;;;;;;;14.03;2.83;;;6.20;99.90;;;;;;5021927;28;20425;-64
2023/10/07 05:14:15;;;;;;;7.77;2.60;;;6.20;99.90;;;;;;5027457;28;20462;-64
2023/10/07 05:16:41;;;;;;;7.03;2.20;;;6.20;99.90;;;;;;5018208;28;20420;-64
2023/10/07 05:19:09;;;;;;;5.13;2.13;;;6.20;99.90;;;;;;5019646;28;20417;-64
2023/10/07 05:21:38;;;;;;;5.00;2.90;;;6.20;99.90;;;;;;5017184;28;20179;-64
2023/10/07 05:24:09;;;;;;;5.43;2.67;;;6.20;99.90;;;;;;5026177;28;20905;-64
2023/10/07 05:26:35;;;;;;;4.90;2.47;;;6.10;99.90;;;;;;5021639;28;20436;-64
2023/10/07 05:29:02;;;;;;;7.37;2.97;;;6.20;99.90;;;;;;5027567;28;20429;-64
2023/10/07 05:31:30;;;;;;;5.33;2.33;;;6.20;99.90;;;;;;5023019;28;20183;-64
2023/10/07 05:33:59;;;;;;;4.10;1.83;;;6.20;99.90;;;;;;5027490;28;20552;-64
2023/10/07 05:36:30;;;;;;;8.67;3.10;;;6.20;99.90;;;;;;5023783;28;20464;-63
2023/10/07 05:38:56;;;;;;;5.17;2.13;;;6.10;99.90;;;;;;5029811;28;20462;-64
2023/10/07 05:41:25;;;;;;;5.00;2.37;;;6.20;99.90;;;;;;5027311;28;20414;-64
2023/10/07 05:43:51;;;;;;;8.57;2.90;;;6.20;99.90;;;;;;5030778;28;20424;-64
2023/10/07 05:46:21;;;;;;;13.40;3.43;;;6.30;99.90;;;;;;5022514;28;20480;-61
2023/10/07 05:48:47;;;;;;;6.07;2.57;;;6.30;99.90;;;;;;5031608;28;20183;-62
2023/10/07 05:51:13;;;;;;;14.10;2.30;;;6.40;99.90;;;;;;5025494;28;21075;-61
2023/10/07 05:53:42;;;;;;;10.07;2.77;;;6.40;99.90;;;;;;5025672;28;20469;-61
2023/10/07 05:56:09;;;;;;;6.30;2.40;;;6.50;99.90;;;;;;5022195;28;20417;-61
2023/10/07 05:58:35;;;;;;;7.40;2.10;;;6.40;99.90;;;;;;5031719;28;20418;-61
2023/10/07 06:01:08;;;;;;;10.60;3.10;;;6.50;99.90;;;;;;5023893;28;20992;-61
2023/10/07 06:03:34;;;;;;;4.40;2.43;;;6.60;99.90;;;;;;5033067;28;20451;-61
2023/10/07 06:06:01;;;;;;;9.50;3.07;;;6.50;99.90;;;;;;5023875;28;20417;-61
2023/10/07 06:08:28;;;;;;;5.33;2.70;;;6.60;99.90;;;;;;5031237;28;20413;-64
2023/10/07 06:10:56;;;;;;;3.80;2.10;;;6.70;99.90;;;;;;5023768;28;20421;-64
2023/10/07 06:13:22;;;;;;;8.30;2.90;;;6.70;99.90;;;;;;5030668;28;20457;-64
2023/10/07 06:15:49;;;;;;;9.53;1.83;;;6.70;99.90;;;;;;5023444;28;20421;-64
2023/10/07 06:18:18;;;;;;;8.70;2.60;;;6.80;99.90;;;;;;5029122;28;20417;-64
2023/10/07 06:20:48;;;;;;;5.40;2.67;;;6.90;99.90;;;;;;5025881;28;20467;-64
2023/10/07 06:23:14;;;;;;;5.77;2.37;;;7.10;99.90;;;;;;5029072;28;20416;-64
2023/10/07 06:25:50;;;;;;;6.03;3.03;;;7.00;99.90;;;;;;5023928;28;20435;-64
2023/10/07 06:28:30;;;;;;;8.80;2.67;;;7.20;99.90;;;;;;5020859;28;20440;-64
2023/10/07 06:33:59;;;;;;;11.10;2.63;;;7.50;99.90;;;;;;5019954;28;21040;-64
2023/10/07 06:36:26;;;;;;;5.47;2.60;;;7.70;99.90;;;;;;5025704;28;20425;-64
2023/10/07 06:38:52;;;;;;;4.47;1.93;;;8.20;99.90;;;;;;5031350;28;20420;-64
2023/10/07 06:41:19;;;;;;;3.93;1.83;;;8.50;99.90;;;;;;5021286;28;20414;-64
2023/10/07 06:43:47;;;;;;;6.17;2.60;;;8.70;99.90;;;;;;5031322;28;20449;-65
2023/10/07 06:46:13;;;;;;;6.33;2.20;;;8.90;99.90;;;;;;5022712;28;20420;-64
2023/10/07 06:48:39;;;;;;;4.53;1.80;;;9.10;99.90;;;;;;5029130;28;20413;-64
2023/10/07 06:51:06;;;;;;;9.57;2.23;;;9.20;99.90;;;;;;5025378;28;20183;-64
2023/10/07 06:53:35;;;;;;;5.20;2.40;;;9.40;99.90;;;;;;5030429;28;20446;-64
2023/10/07 06:56:01;;;;;;;8.23;3.00;;;9.50;99.90;;;;;;5023383;28;20432;-64
2023/10/07 06:58:27;;;;;;;4.33;2.27;;;9.70;99.90;;;;;;5029083;28;20475;-64
2023/10/07 07:01:51;;;;;;;5.67;2.10;;;9.90;99.90;;;;;;5024667;28;20512;-64
2023/10/07 07:03:39;;;;;;;6.03;2.73;;;10.10;99.90;;;;;;5020012;28;20479;-64
2023/10/07 07:06:16;;;;;;;11.63;2.40;;;10.60;99.90;;;;;;5026444;28;20787;-64
2023/10/07 07:08:42;;;;;;;7.43;2.67;;;10.80;99.90;;;;;;5016988;28;20415;-64
2023/10/07 07:11:10;;;;;;;4.00;2.03;;;11.20;99.90;;;;;;5024705;28;20489;-64
2023/10/07 07:13:37;;;;;;;7.60;2.07;;;11.50;99.90;;;;;;5023813;28;20590;-62
2023/10/07 07:16:06;;;;;;;6.60;2.70;;;11.50;99.90;;;;;;5017950;28;20497;-62
2023/10/07 07:18:39;;;;;;;7.27;1.93;;;11.70;99.90;;;;;;5030691;28;20416;-62
2023/10/07 07:21:31;;;;;;;12.53;1.57;;;11.70;99.90;;;;;;5021325;28;20497;-62
2023/10/07 07:23:58;;;;;;;7.53;2.60;;;11.70;99.90;;;;;;5027098;28;20433;-62
2023/10/07 07:26:24;;;;;;;11.80;2.10;;;12.00;99.90;;;;;;5026764;28;20426;-62
2023/10/07 07:28:54;;;;;;;4.37;1.73;;;12.10;99.90;;;;;;5029353;28;20487;-62
2023/10/07 07:31:33;;;;;;;5.13;1.80;;;12.30;99.90;;;;;;5023147;28;20187;-62
2023/10/07 07:34:20;;;;;;;3.90;1.90;;;12.90;99.90;;;;;;5029104;28;20458;-62
2023/10/07 07:36:48;;;;;;;4.33;2.37;;;13.40;99.90;;;;;;5022660;28;20467;-62
2023/10/07 07:39:18;;;;;;;4.60;2.20;;;14.00;99.30;;;;;;5026644;28;20977;-62
2023/10/07 07:41:56;;;;;;;5.53;2.33;;;14.60;98.70;;;;;;5022369;28;20421;-63
2023/10/07 07:44:32;;;;;;;5.77;2.30;;;15.30;96.90;;;;;;5026327;28;20427;-62
2023/10/07 07:47:00;;;;;;;5.77;2.77;;;15.50;96.20;;;;;;5018603;28;20473;-62
2023/10/07 07:49:28;;;;;;;4.73;2.47;;;15.50;95.80;;;;;;5027903;28;20934;-62
2023/10/07 07:51:54;;;;;;;10.70;2.80;;;15.20;96.50;;;;;;5028637;28;20416;-62
2023/10/07 07:54:20;;;;;;;5.50;2.50;;;15.10;95.70;;;;;;5028278;28;20473;-62
2023/10/07 07:56:48;;;;;;;7.33;2.97;;;14.90;95.80;;;;;;5027438;28;20763;-62
2023/10/07 07:59:14;;;;;;;9.13;2.23;;;14.80;95.70;;;;;;5027906;28;20166;-62
2023/10/07 08:02:02;;;;;;;12.63;4.00;;;14.90;96.20;;;;;;5030156;28;20496;-62
2023/10/07 08:04:49;;;;;;;6.80;1.80;;;15.10;96.20;;;;;;5027096;28;20559;-62
2023/10/07 08:09:51;;;;;;;11.00;2.50;;;15.10;95.80;;;;;;5021738;28;20437;-63
2023/10/07 08:12:36;;;;;;;6.70;2.30;;;15.20;95.60;;;;;;5027106;28;20930;-63
2023/10/07 08:17:37;;;;;;;6.77;2.73;;;15.30;95.80;;;;;;5027269;28;20413;-63
2023/10/07 08:20:10;;;;;;;4.93;2.30;;;15.50;96.00;;;;;;5023118;28;20902;-63
2023/10/07 08:22:38;;;;;;;8.07;2.53;;;15.50;95.40;;;;;;5026132;28;20457;-63
2023/10/07 08:25:06;;;;;;;5.70;1.93;;;15.50;95.00;;;;;;5024478;28;20835;-63
2023/10/07 08:27:43;;;;;;;4.50;1.40;;;15.50;95.40;;;;;;5025645;28;20516;-63
2023/10/07 08:30:13;;;;;;;6.30;1.77;;;15.20;96.10;;;;;;5024985;28;20426;-62
2023/10/07 08:32:41;;;;;;;9.63;3.43;;;15.30;95.50;;;;;;5025726;28;20552;-63
2023/10/07 08:35:19;;;;;;;7.00;2.30;;;15.30;95.50;;;;;;5027149;28;20414;-62
2023/10/07 08:37:46;;;;;;;6.83;2.80;;;15.30;95.50;;;;;;5026916;28;20413;-63
2023/10/07 08:40:26;;;;;;;8.90;2.80;;;15.40;95.20;;;;;;5028278;28;20436;-63
2023/10/07 08:43:00;;;;;;;8.87;2.27;;;15.40;95.60;;;;;;5026754;28;20472;-63
2023/10/07 08:45:30;;;;;;;11.17;2.40;;;15.40;96.20;;;;;;5023103;28;20437;-63
2023/10/07 08:48:14;;;;;;;5.33;2.80;;;15.70;95.80;;;;;;5025973;28;20455;-63
2023/10/07 08:50:58;;;;;;;9.47;2.50;;;15.60;95.50;;;;;;5023428;28;20436;-62
2023/10/07 08:53:26;;;;;;;7.00;1.97;;;15.80;95.80;;;;;;5029032;28;20518;-63
2023/10/07 08:55:53;;;;;;;7.33;2.83;;;16.00;95.80;;;;;;5022077;28;20452;-63
2023/10/07 08:58:26;;;;;;;10.87;3.10;;;16.20;94.70;;;;;;5025461;28;20467;-63
2023/10/07 09:00:52;;;;;;;6.47;2.07;;;16.10;94.40;;;;;;5021779;28;20472;-63
2023/10/07 09:03:19;;;;;;;3.80;2.30;;;16.00;95.40;;;;;;5029721;28;20424;-62
2023/10/07 09:05:48;;;;;;;7.57;2.50;;;16.20;95.00;;;;;;5022688;28;20417;-63
2023/10/07 09:08:14;;;;;;;11.00;2.37;;;16.70;94.60;;;;;;5026322;28;20417;-63
2023/10/07 09:10:41;;;;;;;6.13;2.80;;;17.10;94.40;;;;;;5022335;28;20460;-63
2023/10/07 09:13:27;;;;;;;10.50;2.10;;;17.50;93.80;;;;;;5025991;28;20503;-63
2023/10/07 09:16:06;;;;;;;7.60;2.70;;;17.80;93.90;;;;;;5019344;28;20425;-64
2023/10/07 09:18:42;;;;;;;6.03;2.40;;;18.40;92.40;;;;;;5031721;28;20440;-63
2023/10/07 09:21:22;;;;;;;3.80;2.07;;;18.40;92.80;;;;;;5023434;28;20410;-63
2023/10/07 09:23:59;;;;;;;4.23;2.10;;;18.20;91.70;;;;;;5028261;28;20760;-63
2023/10/07 09:26:36;;;;;;;7.33;1.97;;;18.20;91.60;;;;;;5024979;28;20421;-63
2023/10/07 09:29:15;;;;;;;7.03;3.00;;;17.90;91.90;;;;;;5030793;28;20472;-63
2023/10/07 09:31:56;;;;;;;6.00;2.40;;;18.00;91.60;;;;;;5025682;28;20416;-63
2023/10/07 09:34:41;;;;;;;5.77;2.63;;;17.90;92.30;;;;;;5029500;28;20475;-63
2023/10/07 09:37:20;;;;;;;6.33;1.63;;;17.60;92.10;;;;;;5016072;28;20441;-63
2023/10/07 09:40:18;;;;;;;4.57;2.17;;;17.60;92.50;;;;;;5023274;28;20420;-63
2023/10/07 09:42:56;;;;;;;5.10;1.63;;;17.70;93.20;;;;;;5022365;28;20413;-63
2023/10/07 09:45:28;;;;;;;5.70;1.40;;;17.40;92.80;;;;;;5022550;28;20461;-62
2023/10/07 09:47:54;;;;;;;3.00;2.00;;;17.40;92.90;;;;;;5024436;28;20505;-63
2023/10/07 09:50:27;;;;;;;7.80;2.87;;;17.30;92.50;;;;;;5021653;28;20425;-63
2023/10/07 09:53:46;;;;;;;4.20;2.23;;;17.30;93.30;;;;;;5020240;28;21062;-63
2023/10/07 09:56:29;;;;;;;10.43;2.77;;;17.30;93.20;;;;;;4984741;28;20459;-63
2023/10/07 09:59:22;;;;;;;8.80;2.20;;;17.20;93.20;;;;;;5022411;28;20890;-63
2023/10/07 10:01:53;;;;;;;9.40;1.80;;;17.30;93.60;;;;;;5022714;28;20449;-64
2023/10/07 10:04:36;;;;;;;4.63;2.37;;;17.40;93.00;;;;;;5027967;28;20437;-66
2023/10/07 10:07:15;;;;;;;7.80;2.57;;;17.30;93.30;;;;;;5026290;28;20494;-64
2023/10/07 10:10:04;;;;;;;9.73;2.33;;;17.40;93.00;;;;;;5039037;28;20541;-64
2023/10/07 10:13:07;;;;;;;8.03;2.33;;;17.30;93.30;;;;;;5027073;28;20421;-64
2023/10/07 10:21:12;;;;;;;5.63;2.07;;;17.60;93.40;;;;;;4970122;28;20462;-65
2023/10/07 10:23:44;;;;;;;7.53;2.60;;;17.70;92.60;;;;;;4962390;28;20900;-64
2023/10/07 10:26:14;;;;;;;6.70;1.60;;;17.80;92.90;;;;;;4990067;28;20430;-65
2023/10/07 10:28:43;;;;;;;8.17;2.30;;;17.90;92.90;;;;;;5024923;28;21710;-68
2023/10/07 10:31:21;;;;;;;5.87;1.67;;;18.00;92.60;;;;;;5021232;28;20832;-68
2023/10/07 10:33:50;;;;;;;5.67;1.80;;;18.20;91.80;;;;;;5026996;28;20465;-68
2023/10/07 10:36:22;;;;;;;3.97;2.07;;;18.30;92.20;;;;;;5021979;28;20453;-68
2023/10/07 10:38:48;;;;;;;5.90;2.60;;;18.40;91.20;;;;;;5028837;28;20456;-68
2023/10/07 10:41:25;;;;;;;3.77;1.47;;;18.60;90.10;;;;;;5017657;28;20581;-68
2023/10/07 10:43:51;;;;;;;6.57;1.70;;;18.70;89.80;;;;;;5027820;28;20809;-68
2023/10/07 10:46:17;;;;;;;4.40;2.23;;;18.80;88.70;;;;;;5019833;28;20476;-68
2023/10/07 10:48:42;;;;;;;7.37;2.00;;;18.60;89.60;;;;;;5030977;28;20182;-67
2023/10/07 10:51:09;;;;;;;6.53;2.37;;;18.40;90.50;;;;;;5019501;28;20465;-63
2023/10/07 10:53:40;;;;;;;4.73;2.50;;;18.50;90.00;;;;;;5031974;28;20573;-63
2023/10/07 10:56:07;;;;;;;7.10;2.23;;;18.50;90.60;;;;;;5022599;28;20414;-63
2023/10/07 10:58:36;;;;;;;5.47;2.97;;;18.50;89.80;;;;;;5031496;28;20512;-63
2023/10/07 11:01:05;;;;;;;6.70;2.57;;;18.40;87.80;;;;;;5023365;28;20417;-63
2023/10/07 11:03:35;;;;;;;5.47;1.73;;;18.30;89.90;;;;;;5031941;28;20417;-63
2023/10/07 11:06:06;;;;;;;9.10;1.90;;;18.20;90.50;;;;;;5026369;28;20436;-63
2023/10/07 11:08:33;;;;;;;5.07;2.03;;;18.60;90.10;;;;;;5030662;28;20424;-63
2023/10/07 11:10:59;;;;;;;7.63;2.23;;;18.60;89.40;;;;;;5022954;28;20453;-63
2023/10/07 11:13:26;;;;;;;3.70;1.63;;;18.80;89.20;;;;;;5028784;28;20457;-63
2023/10/07 11:16:12;;;;;;;5.50;2.13;;;19.00;89.00;;;;;;5023896;28;20460;-63
2023/10/07 11:18:38;;;;;;;6.13;2.00;;;19.20;87.70;;;;;;5031324;28;20417;-63
2023/10/07 11:21:18;;;;;;;5.80;1.93;;;19.60;86.40;;;;;;5020641;28;20422;-63
2023/10/07 11:23:52;;;;;;;9.67;2.37;;;19.60;85.60;;;;;;5021266;28;20425;-63
2023/10/07 11:26:20;;;;;;;5.73;1.80;;;19.50;84.30;;;;;;5020662;28;20921;-62
2023/10/07 11:28:48;;;;;;;6.00;1.50;;;19.60;84.80;;;;;;5030107;28;20908;-63
2023/10/07 11:31:20;;;;;;;4.17;2.13;;;19.60;85.80;;;;;;5022976;28;20426;-63
2023/10/07 11:33:52;;;;;;;3.30;1.67;;;19.60;84.00;;;;;;5029876;28;20452;-63
2023/10/07 11:36:17;;;;;;;4.73;1.50;;;19.60;84.80;;;;;;5023386;28;20472;-63
2023/10/07 11:38:43;;;;;;;6.47;2.20;;;19.70;84.70;;;;;;5029936;28;20417;-63
2023/10/07 11:41:10;;;;;;;6.40;1.97;;;19.80;85.30;;;;;;5022372;28;20183;-63
2023/10/07 11:43:47;;;;;;;4.97;1.50;;;20.00;85.80;;;;;;5030610;28;20578;-63
2023/10/07 11:46:13;;;;;;;5.33;2.27;;;20.00;84.10;;;;;;5020940;28;20417;-63
2023/10/07 11:48:41;;;;;;;5.60;2.33;;;19.80;85.30;;;;;;5022109;28;20413;-63
2023/10/07 11:51:07;;;;;;;7.77;1.93;;;19.50;83.40;;;;;;5023345;28;20878;-63
2023/10/07 11:53:34;;;;;;;7.53;2.13;;;19.40;85.80;;;;;;5030879;28;20460;-63
2023/10/07 11:56:02;;;;;;;4.57;1.87;;;19.20;85.60;;;;;;5022440;28;20443;-63
2023/10/07 11:58:32;;;;;;;3.00;1.47;;;19.00;85.00;;;;;;5030356;28;20445;-63
2023/10/07 12:00:57;;;;;;;7.07;2.60;;;19.00;87.80;;;;;;5022928;28;20456;-63
2023/10/07 12:03:25;;;;;;;3.30;1.63;;;19.10;88.20;;;;;;5030056;28;20463;-63
2023/10/07 12:05:51;;;;;;;7.10;2.27;;;19.10;87.60;;;;;;5021979;28;20186;-63
2023/10/07 12:08:18;;;;;;;9.73;2.47;;;19.20;87.00;;;;;;5019098;28;20430;-63
2023/10/07 12:10:44;;;;;;;5.47;1.70;;;19.30;86.80;;;;;;5023517;28;20202;-62
2023/10/07 12:13:14;;;;;;;5.60;2.73;;;19.40;85.80;;;;;;5021729;28;20472;-62
2023/10/07 12:15:42;;;;;;;5.37;2.13;;;19.30;85.60;;;;;;5018276;28;20210;-62
2023/10/07 12:18:09;;;;;;;5.07;1.90;;;19.40;86.00;;;;;;5025738;28;20431;-62
2023/10/07 12:20:35;;;;;;;11.97;2.50;;;19.40;85.30;;;;;;5027702;28;20840;-62
2023/10/07 12:23:02;;;;;;;4.07;1.70;;;19.40;86.50;;;;;;5030294;28;20413;-62
2023/10/07 12:25:28;;;;;;;10.20;1.83;;;19.30;88.50;;;;;;5024239;28;20194;-62
2023/10/07 12:27:54;;;;;;;3.77;1.97;;;19.10;87.00;;;;;;5026248;28;20439;-63
2023/10/07 12:30:23;;;;;;;3.67;2.07;;;19.10;87.60;;;;;;5022449;28;20486;-63
2023/10/07 12:32:49;;;;;;;4.03;1.60;;;19.10;87.30;;;;;;5025608;28;20496;-62
2023/10/07 12:35:17;;;;;;;4.63;1.80;;;19.20;87.20;;;;;;5026895;28;20429;-62
2023/10/07 12:37:46;;;;;;;5.53;1.87;;;19.40;88.30;;;;;;5026344;28;20406;-62
2023/10/07 12:40:19;;;;;;;2.80;1.60;;;19.40;87.80;;;;;;5024791;28;20758;-62
2023/10/07 12:42:46;;;;;;;5.13;2.60;;;19.60;87.50;;;;;;5022958;28;20878;-62
2023/10/07 12:45:12;;;;;;;3.80;1.57;;;19.80;86.50;;;;;;5022796;28;20496;-62
2023/10/07 12:47:42;;;;;;;13.47;1.73;;;20.00;85.50;;;;;;5026302;28;20460;-62
2023/10/07 12:50:29;;;;;;;4.90;1.80;;;20.20;84.80;;;;;;5027391;28;20464;-62
2023/10/07 12:52:55;;;;;;;9.53;1.80;;;20.10;85.40;;;;;;5030579;28;20492;-62
2023/10/07 12:55:22;;;;;;;7.00;2.47;;;20.30;84.50;;;;;;5026577;28;20858;-63
2023/10/07 12:57:49;;;;;;;5.73;2.40;;;20.20;85.50;;;;;;5032345;28;20440;-63
2023/10/07 13:00:22;;;;;;;11.10;2.10;;;20.20;84.60;;;;;;5026285;28;20520;-62
2023/10/07 13:02:49;;;;;;;4.63;1.83;;;20.30;84.40;;;;;;5033410;28;20503;-63
2023/10/07 13:05:18;;;;;;;7.80;2.20;;;20.20;84.90;;;;;;5030268;28;20471;-62
2023/10/07 13:07:48;;;;;;;4.50;1.70;;;20.20;85.30;;;;;;5029420;28;20425;-62
2023/10/07 13:10:15;;;;;;;4.73;2.03;;;20.20;84.00;;;;;;5027831;28;20426;-62
2023/10/07 13:12:41;;;;;;;5.07;2.10;;;20.20;83.80;;;;;;5029717;28;20983;-62
2023/10/07 13:15:14;;;;;;;5.47;1.80;;;20.30;85.30;;;;;;5025339;28;21006;-62
2023/10/07 13:17:47;;;;;;;20.13;2.10;;;20.40;85.50;;;;;;5028257;28;20178;-62
2023/10/07 13:20:13;;;;;;;4.13;1.63;;;20.90;84.00;;;;;;5026786;28;20531;-63
2023/10/07 13:22:39;;;;;;;3.60;1.70;;;21.20;82.80;;;;;;5030468;28;20428;-63
2023/10/07 13:25:09;;;;;;;7.67;2.20;;;21.20;82.40;;;;;;5027168;28;20425;-63
2023/10/07 13:27:38;;;;;;;4.60;2.00;;;;;;;;;;5027475;28;20946;-64
2023/10/07 13:30:08;;;;;;;7.27;2.13;;;21.10;83.50;;;;;;5028108;28;20501;-63
2023/10/07 13:32:34;;;;;;;5.13;2.60;;;20.70;82.00;;;;;;5028762;28;20425;-64
2023/10/07 13:35:00;;;;;;;7.30;2.70;;;20.60;83.50;;;;;;5025916;28;20907;-62
2023/10/07 13:37:25;;;;;;;4.50;1.53;;;20.60;83.50;;;;;;5032966;28;20417;-62
2023/10/07 13:39:54;;;;;;;6.80;2.40;;;20.70;87.30;;;;;;5031919;28;20321;-62
2023/10/07 13:42:23;;;;;;;5.10;2.03;;;20.90;83.50;;;;;;5029136;28;20277;-62
2023/10/07 13:44:49;;;;;;;9.37;2.30;;;21.00;83.50;;;;;;5028911;28;20428;-62
2023/10/07 13:47:17;;;;;;;2.33;1.23;;;21.20;81.80;;;;;;5029448;28;20425;-63
2023/10/07 13:49:46;;;;;;;5.53;1.90;;;21.10;85.10;;;;;;5029607;28;20543;-63
2023/10/07 13:52:18;;;;;;;7.30;2.20;;;21.00;84.60;;;;;;5026836;28;20409;-63
2023/10/07 13:57:31;;;;;;;6.50;2.10;;;20.80;84.10;;;;;;4999510;28;20452;-63